createdAt,value
2022-12-04T00:01:08.232Z,1.84
2022-12-04T00:03:35.407Z,1.86
2022-12-04T00:06:06.250Z,1.91
2022-12-04T00:08:33.174Z,1.97
2022-12-04T00:11:00.030Z,1.93
2022-12-04T00:13:27.053Z,1.92
2022-12-04T00:15:54.102Z,1.87
2022-12-04T00:18:21.043Z,1.88
2022-12-04T00:20:48.060Z,1.88
2022-12-04T00:23:14.821Z,1.87
2022-12-04T00:25:41.710Z,1.92
2022-12-04T00:28:08.858Z,1.93
2022-12-04T00:30:35.538Z,1.90
2022-12-04T00:33:02.325Z,1.93
2022-12-04T00:35:28.996Z,1.92
2022-12-04T00:37:55.703Z,1.87
2022-12-04T00:40:22.419Z,1.89
2022-12-04T00:42:49.279Z,1.88
2022-12-04T00:45:15.987Z,1.87
2022-12-04T00:47:42.795Z,1.89
2022-12-04T00:50:10.067Z,1.96
2022-12-04T00:52:36.576Z,1.97
2022-12-04T00:55:03.941Z,1.91
2022-12-04T00:57:30.810Z,1.94
2022-12-04T00:59:57.718Z,1.97
2022-12-04T01:02:24.528Z,1.93
2022-12-04T01:04:51.282Z,1.96
2022-12-04T01:07:17.977Z,1.94
2022-12-04T01:09:44.686Z,1.94
2022-12-04T01:12:14.926Z,1.92
2022-12-04T01:14:44.370Z,1.93
2022-12-04T01:17:11.059Z,1.94
2022-12-04T01:19:37.782Z,1.93
2022-12-04T01:22:04.490Z,1.96
2022-12-04T01:24:31.314Z,2.00
2022-12-04T01:26:57.991Z,1.94
2022-12-04T01:29:24.699Z,1.94
2022-12-04T01:31:51.439Z,1.93
2022-12-04T01:34:18.225Z,1.92
2022-12-04T01:36:44.924Z,1.90
2022-12-04T01:39:12.152Z,1.86
2022-12-04T01:41:38.718Z,1.92
2022-12-04T01:44:16.697Z,1.92
2022-12-04T01:46:45.827Z,1.88
2022-12-04T01:49:24.151Z,1.86
2022-12-04T01:51:59.406Z,1.87
2022-12-04T01:54:30.235Z,1.85
2022-12-04T01:57:15.118Z,1.84
2022-12-04T01:59:47.882Z,1.90
2022-12-04T02:02:19.435Z,1.88
2022-12-04T02:04:46.792Z,1.88
2022-12-04T02:07:13.458Z,1.91
2022-12-04T02:09:42.275Z,1.86
2022-12-04T02:12:11.622Z,1.92
2022-12-04T02:14:56.828Z,1.96
2022-12-04T02:17:28.650Z,1.96
2022-12-04T02:20:16.584Z,1.97
2022-12-04T02:23:24.963Z,2.01
2022-12-04T02:26:33.240Z,2.06
2022-12-04T02:29:14.738Z,2.04
2022-12-04T02:31:55.636Z,2.07
2022-12-04T02:34:43.235Z,2.07
2022-12-04T02:37:16.909Z,2.10
2022-12-04T02:39:52.098Z,2.11
2022-12-04T02:42:59.746Z,2.10
2022-12-04T02:45:41.006Z,2.03
2022-12-04T02:48:08.591Z,2.02
2022-12-04T02:50:38.655Z,1.96
2022-12-04T02:53:37.283Z,1.94
2022-12-04T02:56:11.873Z,1.93
2022-12-04T02:58:45.769Z,1.92
2022-12-04T03:01:24.032Z,1.92
2022-12-04T03:04:07.288Z,1.92
2022-12-04T03:06:39.184Z,1.93
2022-12-04T03:09:20.034Z,1.87
2022-12-04T03:11:52.719Z,1.86
2022-12-04T03:14:25.550Z,1.83
2022-12-04T03:16:57.513Z,1.83
2022-12-04T03:19:33.431Z,1.84
2022-12-04T03:22:04.463Z,1.82
2022-12-04T03:24:36.303Z,1.83
2022-12-04T03:27:30.539Z,1.84
2022-12-04T03:30:05.812Z,1.84
2022-12-04T03:33:00.716Z,1.83
2022-12-04T03:35:37.968Z,1.80
2022-12-04T03:38:12.519Z,1.84
2022-12-04T03:40:59.179Z,1.83
2022-12-04T03:43:49.998Z,1.83
2022-12-04T03:46:44.965Z,1.82
2022-12-04T03:49:26.992Z,1.83
2022-12-04T03:52:11.145Z,1.78
2022-12-04T03:54:44.747Z,1.86
2022-12-04T03:57:36.565Z,1.86
2022-12-04T04:00:07.986Z,1.88
2022-12-04T04:02:39.965Z,1.89
2022-12-04T04:05:09.999Z,1.93
2022-12-04T04:07:51.224Z,1.91
2022-12-04T04:10:21.308Z,1.89
2022-12-04T04:13:13.521Z,1.88
2022-12-04T04:16:04.445Z,1.83
2022-12-04T04:19:08.136Z,1.87
2022-12-04T04:21:56.361Z,1.89
2022-12-04T04:24:45.455Z,1.90
2022-12-04T04:27:12.455Z,1.93
2022-12-04T04:29:39.598Z,1.92
2022-12-04T04:32:28.751Z,1.89
2022-12-04T04:35:14.266Z,1.92
2022-12-04T04:37:40.971Z,1.95
2022-12-04T04:40:29.309Z,2.01
2022-12-04T04:43:05.262Z,1.97
2022-12-04T04:45:37.976Z,1.94
2022-12-04T04:48:41.361Z,1.96
2022-12-04T04:51:08.461Z,1.91
2022-12-04T04:54:04.444Z,1.94
2022-12-04T04:56:31.520Z,1.94
2022-12-04T04:58:58.275Z,1.97
2022-12-04T05:01:28.065Z,1.95
2022-12-04T05:03:54.851Z,1.92
2022-12-04T05:06:21.609Z,1.95
2022-12-04T05:08:49.343Z,1.98
2022-12-04T05:11:17.196Z,1.97
2022-12-04T05:13:43.996Z,1.96
2022-12-04T05:16:13.093Z,1.96
2022-12-04T05:18:40.557Z,1.95
2022-12-04T05:21:08.273Z,1.96
2022-12-04T05:23:35.377Z,1.97
2022-12-04T05:26:04.469Z,1.95
2022-12-04T05:28:31.337Z,1.95
2022-12-04T05:31:00.560Z,1.99
2022-12-04T05:33:27.728Z,1.92
2022-12-04T05:36:06.105Z,1.96
2022-12-04T05:38:33.565Z,1.96
2022-12-04T05:41:03.144Z,1.92
2022-12-04T05:43:30.230Z,1.93
2022-12-04T05:46:02.236Z,1.85
2022-12-04T05:48:29.018Z,1.86
2022-12-04T05:50:56.374Z,1.85
2022-12-04T05:53:23.576Z,1.85
2022-12-04T05:55:58.462Z,1.80
2022-12-04T05:58:26.298Z,1.85
2022-12-04T06:00:53.298Z,1.84
2022-12-04T06:03:20.451Z,1.87
2022-12-04T06:05:47.446Z,1.91
2022-12-04T06:08:14.443Z,1.89
2022-12-04T06:10:41.221Z,1.87
2022-12-04T06:13:08.791Z,1.84
2022-12-04T06:15:40.001Z,1.86
2022-12-04T06:18:06.989Z,1.84
2022-12-04T06:20:34.671Z,1.83
2022-12-04T06:23:01.800Z,1.81
2022-12-04T06:25:28.668Z,1.77
2022-12-04T06:27:55.382Z,1.85
2022-12-04T06:30:22.245Z,1.81
2022-12-04T06:32:49.002Z,1.78
2022-12-04T06:35:15.708Z,1.79
2022-12-04T06:37:42.571Z,1.78
2022-12-04T06:40:09.709Z,1.82
2022-12-04T06:42:36.471Z,1.81
2022-12-04T06:45:03.684Z,1.86
2022-12-04T06:47:30.239Z,1.84
2022-12-04T06:49:57.133Z,1.86
2022-12-04T06:52:25.503Z,1.84
2022-12-04T06:54:52.513Z,1.88
2022-12-04T06:57:20.595Z,1.91
2022-12-04T06:59:48.691Z,1.90
2022-12-04T07:02:16.590Z,1.84
2022-12-04T07:04:48.794Z,1.85
2022-12-04T07:07:17.887Z,1.85
2022-12-04T07:09:46.119Z,1.88
2022-12-04T07:12:14.334Z,1.90
2022-12-04T07:14:43.775Z,1.90
2022-12-04T07:17:10.891Z,1.93
2022-12-04T07:19:39.411Z,1.93
2022-12-04T07:22:09.605Z,1.87
2022-12-04T07:24:40.614Z,1.93
2022-12-04T07:27:09.020Z,1.91
2022-12-04T07:29:36.180Z,1.95
2022-12-04T07:32:14.321Z,1.97
2022-12-04T07:34:43.678Z,1.97
2022-12-04T07:37:10.724Z,1.98
2022-12-04T07:39:38.063Z,2.02
2022-12-04T07:42:05.584Z,2.04
2022-12-04T07:44:34.932Z,1.95
2022-12-04T07:47:03.075Z,1.96
2022-12-04T07:49:30.068Z,2.01
2022-12-04T07:51:57.692Z,1.97
2022-12-04T07:54:25.053Z,1.97
2022-12-04T07:56:52.155Z,1.98
2022-12-04T07:59:19.036Z,2.00
2022-12-04T08:01:46.981Z,2.00
2022-12-04T08:04:16.239Z,2.04
2022-12-04T08:06:43.765Z,1.99
2022-12-04T08:09:11.294Z,1.99
2022-12-04T08:11:39.258Z,1.97
2022-12-04T08:14:09.101Z,1.99
2022-12-04T08:16:36.255Z,1.93
2022-12-04T08:19:05.064Z,1.96
2022-12-04T08:21:32.867Z,1.99
2022-12-04T08:24:01.790Z,1.99
2022-12-04T08:26:31.461Z,2.03
2022-12-04T08:28:59.416Z,2.06
2022-12-04T08:31:29.384Z,1.97
2022-12-04T08:34:06.769Z,2.09
2022-12-04T08:36:35.597Z,2.09
2022-12-04T08:39:03.064Z,2.13
2022-12-04T08:41:29.652Z,2.03
2022-12-04T08:43:57.806Z,2.04
2022-12-04T08:46:26.370Z,2.12
2022-12-04T08:48:54.378Z,2.12
2022-12-04T08:51:24.464Z,2.12
2022-12-04T08:53:58.959Z,2.10
2022-12-04T08:56:27.522Z,2.12
2022-12-04T08:58:56.155Z,2.06
2022-12-04T09:01:23.272Z,2.07
2022-12-04T09:03:50.629Z,2.15
2022-12-04T09:06:18.391Z,2.18
2022-12-04T09:08:45.482Z,2.20
2022-12-04T09:11:18.465Z,2.27
2022-12-04T09:13:45.633Z,2.26
2022-12-04T09:16:13.981Z,2.30
2022-12-04T09:18:40.807Z,2.30
2022-12-04T09:21:11.158Z,2.33
2022-12-04T09:23:41.371Z,2.18
2022-12-04T09:26:27.632Z,2.30
2022-12-04T09:28:56.591Z,2.29
2022-12-04T09:31:24.523Z,2.33
2022-12-04T09:33:52.343Z,2.34
2022-12-04T09:36:20.026Z,2.38
2022-12-04T09:38:53.407Z,2.42
2022-12-04T09:41:45.409Z,2.41
2022-12-04T09:44:27.314Z,2.42
2022-12-04T09:47:04.163Z,2.45
2022-12-04T09:49:52.282Z,2.43
2022-12-04T09:52:46.313Z,2.43
2022-12-04T09:55:20.528Z,2.47
2022-12-04T09:57:50.919Z,2.43
2022-12-04T10:00:19.903Z,2.51
2022-12-04T10:02:56.245Z,2.55
2022-12-04T10:05:42.166Z,2.56
2022-12-04T10:08:22.933Z,2.55
2022-12-04T10:11:17.678Z,2.61
2022-12-04T10:13:50.371Z,2.60
2022-12-04T10:16:27.128Z,2.58
2022-12-04T10:19:05.251Z,2.61
2022-12-04T10:21:53.752Z,2.60
2022-12-04T10:24:39.056Z,2.66
2022-12-04T10:27:14.766Z,2.63
2022-12-04T10:29:46.941Z,2.66
2022-12-04T10:32:33.459Z,2.65
2022-12-04T10:35:16.419Z,2.63
2022-12-04T10:37:44.047Z,2.68
2022-12-04T10:40:21.430Z,2.69
2022-12-04T10:43:05.873Z,2.57
2022-12-04T10:45:32.587Z,2.71
2022-12-04T10:47:59.513Z,2.70
2022-12-04T10:50:26.765Z,2.72
2022-12-04T10:52:53.973Z,2.69
2022-12-04T10:55:34.161Z,2.66
2022-12-04T10:58:02.811Z,2.65
2022-12-04T11:00:32.998Z,2.69
2022-12-04T11:03:09.184Z,2.70
2022-12-04T11:05:43.433Z,2.66
2022-12-04T11:08:24.290Z,2.64
2022-12-04T11:11:04.055Z,2.72
2022-12-04T11:13:31.149Z,2.66
2022-12-04T11:15:59.312Z,2.67
2022-12-04T11:18:31.720Z,2.73
2022-12-04T11:21:13.259Z,2.70
2022-12-04T11:23:48.836Z,2.70
2022-12-04T11:26:18.510Z,2.77
2022-12-04T11:28:52.041Z,2.67
2022-12-04T11:31:22.337Z,2.74
2022-12-04T11:33:59.770Z,2.75
2022-12-04T11:36:41.054Z,2.63
2022-12-04T11:39:20.793Z,2.78
2022-12-04T11:41:47.721Z,2.80
2022-12-04T11:44:26.393Z,2.81
2022-12-04T11:46:55.556Z,2.82
2022-12-04T11:49:23.897Z,2.87
2022-12-04T11:52:15.665Z,2.86
2022-12-04T11:54:53.695Z,2.81
2022-12-04T11:57:23.253Z,2.87
2022-12-04T11:59:56.323Z,2.92
2022-12-04T12:02:44.466Z,2.97
2022-12-04T12:05:29.993Z,2.95
2022-12-04T12:08:23.691Z,2.93
2022-12-04T12:10:53.021Z,2.95
2022-12-04T12:13:39.932Z,2.89
2022-12-04T12:16:19.125Z,2.92
2022-12-04T12:18:53.871Z,2.95
2022-12-04T12:21:55.158Z,2.99
2022-12-04T12:24:49.893Z,3.00
2022-12-04T12:27:57.261Z,3.02
2022-12-04T12:30:27.098Z,3.00
2022-12-04T12:32:56.492Z,3.01
2022-12-04T12:35:32.038Z,3.02
2022-12-04T12:38:06.830Z,3.05
2022-12-04T12:40:47.494Z,3.02
2022-12-04T12:43:27.637Z,3.07
2022-12-04T12:46:17.025Z,3.07
2022-12-04T12:49:09.216Z,3.08
2022-12-04T12:51:45.508Z,3.10
2022-12-04T12:54:28.404Z,3.13
2022-12-04T12:57:01.901Z,3.11
2022-12-04T12:59:29.123Z,3.13
2022-12-04T13:02:02.917Z,3.22
2022-12-04T13:04:44.585Z,3.31
2022-12-04T13:07:17.633Z,3.33
2022-12-04T13:10:02.850Z,3.28
2022-12-04T13:12:39.197Z,3.27
2022-12-04T13:15:06.649Z,3.26
2022-12-04T13:17:38.939Z,3.28
2022-12-04T13:20:15.076Z,3.29
2022-12-04T13:22:45.190Z,3.26
2022-12-04T13:25:41.709Z,3.25
2022-12-04T13:28:15.039Z,3.27
2022-12-04T13:31:10.115Z,3.26
2022-12-04T13:33:43.805Z,3.25
2022-12-04T13:36:22.762Z,3.26
2022-12-04T13:39:01.325Z,3.25
2022-12-04T13:41:29.236Z,3.23
2022-12-04T13:43:57.549Z,3.24
2022-12-04T13:46:40.238Z,3.24
2022-12-04T13:49:31.826Z,3.20
2022-12-04T13:52:00.249Z,3.20
2022-12-04T13:54:35.811Z,3.18
2022-12-04T13:57:14.743Z,3.20
2022-12-04T13:59:42.354Z,3.23
2022-12-04T14:02:44.496Z,3.25
2022-12-04T14:05:12.266Z,3.24
2022-12-04T14:07:43.116Z,3.24
2022-12-04T14:10:16.052Z,3.24
2022-12-04T14:12:49.952Z,3.21
2022-12-04T14:15:28.549Z,3.21
2022-12-04T14:17:59.925Z,3.22
2022-12-04T14:20:30.253Z,3.18
2022-12-04T14:23:09.976Z,3.21
2022-12-04T14:25:39.822Z,3.18
2022-12-04T14:28:38.716Z,3.17
2022-12-04T14:31:08.679Z,3.19
2022-12-04T14:34:17.576Z,3.17
2022-12-04T14:36:47.843Z,3.18
2022-12-04T14:39:58.098Z,3.20
2022-12-04T14:42:28.778Z,3.17
2022-12-04T14:44:59.887Z,3.15
2022-12-04T14:47:41.862Z,3.17
2022-12-04T14:50:25.365Z,3.14
2022-12-04T14:53:17.569Z,3.14
2022-12-04T14:56:10.827Z,3.12
2022-12-04T14:58:39.295Z,3.09
2022-12-04T15:01:41.559Z,3.10
2022-12-04T15:04:29.271Z,3.06
2022-12-04T15:07:00.361Z,3.02
2022-12-04T15:09:46.503Z,3.04
2022-12-04T15:12:34.187Z,3.04
2022-12-04T15:15:25.836Z,3.05
2022-12-04T15:18:10.276Z,3.04
2022-12-04T15:20:52.530Z,3.04
2022-12-04T15:23:36.567Z,3.01
2022-12-04T15:26:25.731Z,2.96
2022-12-04T15:29:00.601Z,2.95
2022-12-04T15:31:49.803Z,2.86
2022-12-04T15:34:21.892Z,2.84
2022-12-04T15:36:55.619Z,2.80
2022-12-04T15:39:26.600Z,2.79
2022-12-04T15:42:15.483Z,2.79
2022-12-04T15:45:00.747Z,2.72
2022-12-04T15:47:33.362Z,2.72
2022-12-04T15:50:22.924Z,2.70
2022-12-04T15:52:58.569Z,2.65
2022-12-04T15:55:28.033Z,2.69
2022-12-04T15:58:06.972Z,2.63
2022-12-04T16:00:38.872Z,2.63
2022-12-04T16:03:26.231Z,2.59
2022-12-04T16:06:05.822Z,2.56
2022-12-04T16:08:36.728Z,2.52
2022-12-04T16:11:07.979Z,2.50
2022-12-04T16:13:38.910Z,2.47
2022-12-04T16:16:14.267Z,2.44
2022-12-04T16:18:43.665Z,2.44
2022-12-04T16:21:23.910Z,2.45
2022-12-04T16:23:51.039Z,2.44
2022-12-04T16:26:20.522Z,2.38
2022-12-04T16:28:47.950Z,2.36
2022-12-04T16:31:24.080Z,2.37
2022-12-04T16:33:50.971Z,2.35
2022-12-04T16:36:19.042Z,2.38
2022-12-04T16:39:06.219Z,2.34
2022-12-04T16:41:33.902Z,2.32
2022-12-04T16:44:01.905Z,2.30
2022-12-04T16:46:31.147Z,2.30
2022-12-04T16:49:04.188Z,2.28
2022-12-04T16:51:38.145Z,2.29
2022-12-04T16:54:06.025Z,2.24
2022-12-04T16:56:33.236Z,2.21
2022-12-04T16:59:00.468Z,2.16
2022-12-04T17:01:33.740Z,2.18
2022-12-04T17:04:00.861Z,2.13
2022-12-04T17:06:27.771Z,2.12
2022-12-04T17:08:54.455Z,2.12
2022-12-04T17:11:21.164Z,2.14
2022-12-04T17:13:47.952Z,2.12
2022-12-04T17:16:17.612Z,2.12
2022-12-04T17:18:46.504Z,2.13
2022-12-04T17:21:14.145Z,2.11
2022-12-04T17:23:41.156Z,2.13
2022-12-04T17:26:10.456Z,2.14
2022-12-04T17:28:37.299Z,2.15
2022-12-04T17:31:11.715Z,2.13
2022-12-04T17:33:38.601Z,2.10
2022-12-04T17:36:10.791Z,2.09
2022-12-04T17:38:37.992Z,2.09
2022-12-04T17:41:04.918Z,2.08
2022-12-04T17:43:32.178Z,2.08
2022-12-04T17:45:59.041Z,2.06
2022-12-04T17:48:27.554Z,2.06
2022-12-04T17:51:06.063Z,2.03
2022-12-04T17:53:32.822Z,2.05
2022-12-04T17:56:04.447Z,2.07
2022-12-04T17:58:32.806Z,2.06
2022-12-04T18:01:07.320Z,2.07
2022-12-04T18:03:34.470Z,2.10
2022-12-04T18:06:01.696Z,2.09
2022-12-04T18:08:29.571Z,2.10
2022-12-04T18:10:57.361Z,2.09
2022-12-04T18:13:24.334Z,2.04
2022-12-04T18:15:51.061Z,2.07
2022-12-04T18:18:17.766Z,2.11
2022-12-04T18:20:44.818Z,2.13
2022-12-04T18:23:11.713Z,2.11
2022-12-04T18:25:38.423Z,2.13
2022-12-04T18:28:05.219Z,2.12
2022-12-04T18:30:34.019Z,2.08
2022-12-04T18:33:00.750Z,2.13
2022-12-04T18:35:27.431Z,2.13
2022-12-04T18:37:54.116Z,2.12
2022-12-04T18:40:20.896Z,2.11
2022-12-04T18:42:50.081Z,2.09
2022-12-04T18:45:16.924Z,1.95
2022-12-04T18:47:43.670Z,2.05
2022-12-04T18:50:10.624Z,2.04
2022-12-04T18:52:39.347Z,2.06
2022-12-04T18:55:06.376Z,2.08
2022-12-04T18:57:33.064Z,2.08
2022-12-04T19:00:00.114Z,2.09
2022-12-04T19:02:27.004Z,2.08
2022-12-04T19:04:53.772Z,2.10
2022-12-04T19:07:20.446Z,2.10
2022-12-04T19:10:10.560Z,2.09
2022-12-04T19:12:33.832Z,2.09
2022-12-04T19:15:00.554Z,2.09
2022-12-04T19:17:27.326Z,2.10
2022-12-04T19:19:54.602Z,2.11
2022-12-04T19:22:21.599Z,2.08
2022-12-04T19:24:48.292Z,2.15
2022-12-04T19:27:15.327Z,2.13
2022-12-04T19:29:43.331Z,2.14
2022-12-04T19:32:10.764Z,2.13
2022-12-04T19:34:37.519Z,2.12
2022-12-04T19:37:04.227Z,2.14
2022-12-04T19:39:30.913Z,2.11
2022-12-04T19:41:57.726Z,2.12
2022-12-04T19:47:11.133Z,2.14
2022-12-04T19:49:37.826Z,2.16
2022-12-04T19:52:05.556Z,2.18
2022-12-04T19:54:32.370Z,2.15
2022-12-04T19:56:59.144Z,2.21
2022-12-04T19:59:27.739Z,2.23
2022-12-04T20:01:56.312Z,2.25
2022-12-04T20:04:23.212Z,2.28
2022-12-04T20:06:50.019Z,2.28
2022-12-04T20:09:22.229Z,2.25
2022-12-04T20:11:49.460Z,2.28
2022-12-04T20:14:16.215Z,2.29
2022-12-04T20:16:43.192Z,2.28
2022-12-04T20:19:15.841Z,2.23
2022-12-04T20:21:43.813Z,2.29
2022-12-04T20:24:16.543Z,2.28
2022-12-04T20:26:45.436Z,2.29
2022-12-04T20:29:16.234Z,2.30
2022-12-04T20:31:44.818Z,2.31
2022-12-04T20:34:15.063Z,2.31
2022-12-04T20:36:43.739Z,2.32
2022-12-04T20:39:13.334Z,2.33
2022-12-04T20:41:40.673Z,2.30
2022-12-04T20:44:09.481Z,2.30
2022-12-04T20:46:39.108Z,2.25
2022-12-04T20:49:18.844Z,2.25
2022-12-04T20:51:48.707Z,2.25
2022-12-04T20:54:18.625Z,2.26
2022-12-04T20:56:46.054Z,2.25
2022-12-04T20:59:14.236Z,2.25
2022-12-04T21:01:41.796Z,2.25
2022-12-04T21:04:08.696Z,2.26
2022-12-04T21:06:38.145Z,2.26
2022-12-04T21:09:11.883Z,2.22
2022-12-04T21:11:41.882Z,2.25
2022-12-04T21:14:33.912Z,2.29
2022-12-04T21:17:01.667Z,2.25
2022-12-04T21:19:28.692Z,2.25
2022-12-04T21:21:55.810Z,2.22
2022-12-04T21:24:23.545Z,2.22
2022-12-04T21:26:50.318Z,2.24
2022-12-04T21:29:16.992Z,2.25
2022-12-04T21:31:43.754Z,2.21
2022-12-04T21:34:13.711Z,2.12
2022-12-04T21:36:41.051Z,2.19
2022-12-04T21:39:08.358Z,2.10
2022-12-04T21:41:54.102Z,2.19
2022-12-04T21:44:21.876Z,2.22
2022-12-04T21:46:49.105Z,2.25
2022-12-04T21:49:16.432Z,2.27
2022-12-04T21:51:59.270Z,2.29
2022-12-04T21:54:27.634Z,2.28
2022-12-04T21:56:55.255Z,2.26
2022-12-04T21:59:22.806Z,2.22
2022-12-04T22:01:49.603Z,2.20
2022-12-04T22:04:16.497Z,2.28
2022-12-04T22:06:43.555Z,2.22
2022-12-04T22:09:12.392Z,2.21
2022-12-04T22:11:43.565Z,2.17
2022-12-04T22:14:11.607Z,2.18
2022-12-04T22:16:42.335Z,2.15
2022-12-04T22:19:10.754Z,2.16
2022-12-04T22:21:37.623Z,2.17
2022-12-04T22:24:05.363Z,2.20
2022-12-04T22:26:32.298Z,2.21
2022-12-04T22:28:59.442Z,2.22
2022-12-04T22:31:27.007Z,2.26
2022-12-04T22:33:56.424Z,2.27
2022-12-04T22:36:25.503Z,2.26
2022-12-04T22:39:08.911Z,2.29
2022-12-04T22:41:37.451Z,2.31
2022-12-04T22:44:04.865Z,2.26
2022-12-04T22:46:32.213Z,2.24
2022-12-04T22:49:00.028Z,2.24
2022-12-04T22:51:27.419Z,2.10
2022-12-04T22:53:56.932Z,2.21
2022-12-04T22:56:23.778Z,2.24
2022-12-04T22:58:51.302Z,2.21
2022-12-04T23:01:20.824Z,2.22
2022-12-04T23:03:48.290Z,2.24
2022-12-04T23:06:16.538Z,2.22
2022-12-04T23:08:43.983Z,2.22
2022-12-04T23:11:13.608Z,2.24
2022-12-04T23:13:41.168Z,2.24
2022-12-04T23:16:09.861Z,2.19
2022-12-04T23:18:37.799Z,2.21
2022-12-04T23:21:06.939Z,2.27
2022-12-04T23:23:35.651Z,2.29
2022-12-04T23:26:07.716Z,2.26
2022-12-04T23:28:34.862Z,2.26
2022-12-04T23:31:01.936Z,2.27
2022-12-04T23:33:29.483Z,2.27
2022-12-04T23:35:58.072Z,2.30
2022-12-04T23:38:25.935Z,2.31
2022-12-04T23:41:11.119Z,2.28
2022-12-04T23:43:38.964Z,2.34
2022-12-04T23:46:10.916Z,2.35
2022-12-04T23:48:38.970Z,2.30
2022-12-04T23:51:06.063Z,2.30
2022-12-04T23:53:32.846Z,2.31
2022-12-04T23:56:03.557Z,2.30
2022-12-04T23:58:31.656Z,2.32
